createdAt,value
2019-04-06T00:01:48.497Z,99977.23
2019-04-06T00:04:22.228Z,99976.13
2019-04-06T00:06:55.826Z,99972.80
2019-04-06T00:09:29.467Z,99979.98
2019-04-06T00:12:03.068Z,99977.20
2019-04-06T00:14:38.393Z,99980.88
2019-04-06T00:17:12.066Z,99977.13
2019-04-06T00:19:46.242Z,99978.07
2019-04-06T00:22:20.030Z,99974.73
2019-04-06T00:24:54.033Z,99972.20
2019-04-06T00:27:27.669Z,99973.72
2019-04-06T00:30:01.321Z,99972.92
2019-04-06T00:32:42.374Z,99976.05
2019-04-06T00:35:16.021Z,99975.92
2019-04-06T00:37:50.097Z,99977.67
2019-04-06T00:40:24.296Z,99986.86
2019-04-06T00:42:58.199Z,99981.92
2019-04-06T00:45:32.279Z,99987.56
2019-04-06T00:48:06.063Z,99978.15
2019-04-06T00:50:39.720Z,99981.78
2019-04-06T00:53:13.357Z,99982.20
2019-04-06T00:55:55.543Z,99985.66
2019-04-06T00:58:22.390Z,99977.05
2019-04-06T01:00:56.113Z,99985.23
2019-04-06T01:03:30.152Z,99985.44
2019-04-06T01:06:03.878Z,99988.50
2019-04-06T01:08:37.484Z,99990.58
2019-04-06T01:11:11.196Z,99993.45
2019-04-06T01:13:44.901Z,99997.84
2019-04-06T01:16:18.705Z,99991.34
2019-04-06T01:18:52.439Z,99989.14
2019-04-06T01:21:26.338Z,99983.73
2019-04-06T01:24:00.021Z,99975.94
2019-04-06T01:26:33.780Z,99986.53
2019-04-06T01:29:07.359Z,99984.52
2019-04-06T01:31:41.110Z,99986.03
2019-04-06T01:34:14.713Z,99985.70
2019-04-06T01:36:48.364Z,99984.35
2019-04-06T01:39:22.025Z,99986.17
2019-04-06T01:41:55.740Z,99982.86
2019-04-06T01:44:29.463Z,99991.88
2019-04-06T01:47:03.243Z,99991.33
2019-04-06T01:49:36.967Z,99987.56
2019-04-06T01:52:10.715Z,99995.68
2019-04-06T01:54:44.811Z,99988.58
2019-04-06T01:57:18.579Z,99989.56
2019-04-06T01:59:52.568Z,99987.97
2019-04-06T02:02:34.887Z,99980.10
2019-04-06T02:05:09.281Z,99983.36
2019-04-06T02:07:43.008Z,99977.55
2019-04-06T02:10:16.976Z,99974.42
2019-04-06T02:12:50.694Z,99972.04
2019-04-06T02:15:24.383Z,99975.56
2019-04-06T02:17:58.101Z,99970.14
2019-04-06T02:20:31.732Z,99972.77
2019-04-06T02:23:05.371Z,99973.39
2019-04-06T02:25:39.361Z,99970.08
2019-04-06T02:28:13.465Z,99978.36
2019-04-06T02:30:59.985Z,99979.31
2019-04-06T02:34:07.578Z,99968.47
2019-04-06T02:37:02.990Z,99962.56
2019-04-06T02:40:07.690Z,99961.68
2019-04-06T02:42:51.243Z,99974.19
2019-04-06T02:45:25.203Z,99973.11
2019-04-06T02:47:58.946Z,99961.22
2019-04-06T02:50:33.059Z,99962.45
2019-04-06T02:53:06.819Z,99963.79
2019-04-06T02:55:40.502Z,99967.84
2019-04-06T02:58:14.283Z,99983.90
2019-04-06T03:00:47.953Z,99986.13
2019-04-06T03:03:21.775Z,99978.84
2019-04-06T03:05:55.472Z,99981.88
2019-04-06T03:08:29.200Z,99977.81
2019-04-06T03:11:02.989Z,99977.86
2019-04-06T03:13:36.866Z,99978.66
2019-04-06T03:16:10.780Z,99969.09
2019-04-06T03:18:44.492Z,99968.94
2019-04-06T03:21:18.239Z,99966.28
2019-04-06T03:23:52.547Z,99971.27
2019-04-06T03:26:26.442Z,99974.58
2019-04-06T03:29:00.492Z,99977.23
2019-04-06T03:31:34.275Z,99967.51
2019-04-06T03:34:08.039Z,99959.12
2019-04-06T03:36:41.718Z,99947.63
2019-04-06T03:39:15.353Z,99951.41
2019-04-06T03:41:49.047Z,99959.86
2019-04-06T03:47:05.767Z,99945.84
2019-04-06T03:49:39.469Z,99961.14
2019-04-06T03:52:13.135Z,99962.09
2019-04-06T03:54:46.776Z,99957.31
2019-04-06T03:57:20.340Z,99960.03
2019-04-06T03:59:54.048Z,99963.00
2019-04-06T04:02:27.792Z,99958.38
2019-04-06T04:05:02.226Z,99949.41
2019-04-06T04:07:35.814Z,99940.76
2019-04-06T04:10:10.075Z,99947.09
2019-04-06T04:12:43.697Z,99947.86
2019-04-06T04:15:18.109Z,99950.09
2019-04-06T04:17:52.872Z,99945.81
2019-04-06T04:20:26.498Z,99942.00
2019-04-06T04:23:00.182Z,99940.56
2019-04-06T04:25:33.960Z,99930.77
2019-04-06T04:28:08.393Z,99929.37
2019-04-06T04:30:42.169Z,99928.20
2019-04-06T04:33:15.826Z,99916.87
2019-04-06T04:35:49.460Z,99926.17
2019-04-06T04:38:23.123Z,99926.15
2019-04-06T04:40:56.822Z,99930.49
2019-04-06T04:43:30.508Z,99933.32
2019-04-06T04:46:04.301Z,99934.89
2019-04-06T04:48:37.949Z,99933.86
2019-04-06T04:51:11.521Z,99940.00
2019-04-06T04:53:45.693Z,99936.42
2019-04-06T04:56:19.454Z,99934.22
2019-04-06T04:58:53.268Z,99932.39
2019-04-06T05:01:26.934Z,99921.38
2019-04-06T05:04:01.226Z,99939.59
2019-04-06T05:06:34.808Z,99932.90
2019-04-06T05:09:09.475Z,99931.61
2019-04-06T05:11:43.540Z,99936.75
2019-04-06T05:15:00.170Z,99944.00
2019-04-06T05:17:34.355Z,99939.69
2019-04-06T05:20:09.845Z,99942.45
2019-04-06T05:22:43.466Z,99944.60
2019-04-06T05:25:23.096Z,99958.41
2019-04-06T05:27:56.737Z,99953.69
2019-04-06T05:30:30.522Z,99956.84
2019-04-06T05:33:07.586Z,99966.87
2019-04-06T05:35:41.242Z,99974.03
2019-04-06T05:38:15.412Z,99970.55
2019-04-06T05:40:50.408Z,99971.23
2019-04-06T05:43:25.708Z,99963.76
2019-04-06T05:45:59.449Z,99973.33
2019-04-06T05:48:38.985Z,99962.13
2019-04-06T05:51:15.553Z,99969.69
2019-04-06T05:54:09.158Z,99971.48
2019-04-06T05:56:42.823Z,99971.91
2019-04-06T05:59:16.621Z,99971.59
2019-04-06T06:01:50.952Z,99963.89
2019-04-06T06:04:27.763Z,99969.37
2019-04-06T06:07:20.477Z,99967.42
2019-04-06T06:10:15.203Z,99976.30
2019-04-06T06:12:48.877Z,99978.04
2019-04-06T06:15:28.248Z,99965.27
2019-04-06T06:18:02.150Z,99971.84
2019-04-06T06:20:35.796Z,99976.98
2019-04-06T06:23:10.382Z,99978.07
2019-04-06T06:25:44.081Z,99979.34
2019-04-06T06:28:17.664Z,99969.83
2019-04-06T06:30:51.300Z,99963.80
2019-04-06T06:33:24.849Z,99964.08
2019-04-06T06:35:58.689Z,99963.72
2019-04-06T06:38:32.236Z,99958.27
2019-04-06T06:41:05.990Z,99955.32
2019-04-06T06:43:39.589Z,99961.64
2019-04-06T06:46:13.227Z,99959.27
2019-04-06T06:48:46.903Z,99964.27
2019-04-06T06:51:36.511Z,99970.82
2019-04-06T06:54:10.065Z,99968.16
2019-04-06T06:56:44.213Z,99970.75
2019-04-06T06:59:17.998Z,99970.28
2019-04-06T07:01:51.704Z,99971.17
2019-04-06T07:04:26.552Z,99962.28
2019-04-06T07:07:00.157Z,99957.66
2019-04-06T07:09:33.808Z,99968.91
2019-04-06T07:12:07.855Z,99970.23
2019-04-06T07:14:41.587Z,99973.30
2019-04-06T07:17:15.392Z,99983.72
2019-04-06T07:19:49.091Z,99983.11
2019-04-06T07:22:22.706Z,99975.20
2019-04-06T07:24:56.281Z,99975.85
2019-04-06T07:27:29.956Z,99981.95
2019-04-06T07:30:03.596Z,99985.86
2019-04-06T07:32:37.177Z,99984.92
2019-04-06T07:35:11.217Z,99983.91
2019-04-06T07:37:45.175Z,99990.78
2019-04-06T07:40:19.149Z,99991.26
2019-04-06T07:42:52.739Z,99990.83
2019-04-06T07:45:26.729Z,99992.13
2019-04-06T07:48:00.350Z,99990.75
2019-04-06T07:50:33.914Z,100001.20
2019-04-06T07:53:07.553Z,99988.58
2019-04-06T07:55:45.669Z,99988.19
2019-04-06T07:58:20.504Z,99992.46
2019-04-06T08:00:54.597Z,99993.80
2019-04-06T08:03:28.385Z,99991.55
2019-04-06T08:06:03.767Z,99992.10
2019-04-06T08:08:37.407Z,99996.69
2019-04-06T08:11:11.624Z,99995.34
2019-04-06T08:14:19.446Z,99988.45
2019-04-06T08:16:49.063Z,100005.98
2019-04-06T08:19:23.173Z,100003.35
2019-04-06T08:21:56.842Z,100009.87
2019-04-06T08:24:31.721Z,99996.71
2019-04-06T08:27:05.723Z,100001.89
2019-04-06T08:29:39.470Z,100001.89
2019-04-06T08:32:16.615Z,99997.94
2019-04-06T08:34:50.263Z,100008.50
2019-04-06T08:37:24.483Z,99997.11
2019-04-06T08:39:58.912Z,99994.89
2019-04-06T08:42:32.539Z,100000.04
2019-04-06T08:45:06.710Z,99992.93
2019-04-06T08:47:40.539Z,99991.83
2019-04-06T08:50:15.218Z,100001.95
2019-04-06T08:52:49.113Z,100003.16
2019-04-06T08:55:27.133Z,99999.80
2019-04-06T08:58:05.751Z,99997.66
2019-04-06T09:00:39.360Z,99996.47
2019-04-06T09:03:13.875Z,100002.84
2019-04-06T09:05:47.759Z,100004.47
2019-04-06T09:08:21.453Z,100013.27
2019-04-06T09:10:56.872Z,100010.02
2019-04-06T09:13:30.564Z,100014.11
2019-04-06T09:16:04.262Z,100010.45
2019-04-06T09:18:39.721Z,100011.14
2019-04-06T09:21:25.636Z,100002.40
2019-04-06T09:23:59.355Z,100003.18
2019-04-06T09:26:33.404Z,100003.42
2019-04-06T09:29:08.251Z,100003.17
2019-04-06T09:31:42.256Z,100007.92
2019-04-06T09:34:17.270Z,99994.25
2019-04-06T09:36:50.830Z,100000.12
2019-04-06T09:39:24.460Z,100000.53
2019-04-06T09:41:58.103Z,99992.58
2019-04-06T15:50:58.193Z,99779.11
2019-04-06T15:53:42.213Z,99777.90
2019-04-06T15:56:26.321Z,99776.44
2019-04-06T15:59:21.701Z,99777.95
2019-04-06T16:02:09.647Z,99778.30
2019-04-06T16:05:11.025Z,99782.75
2019-04-06T16:08:01.406Z,99785.63
2019-04-06T16:10:45.881Z,99778.11
2019-04-06T16:13:43.474Z,99780.22
2019-04-06T16:16:35.870Z,99782.52
2019-04-06T16:19:18.881Z,99787.75
2019-04-06T16:21:59.618Z,99785.98
2019-04-06T16:24:58.544Z,99785.30
2019-04-06T16:28:09.156Z,99784.22
2019-04-06T16:30:52.966Z,99780.31
2019-04-06T16:33:43.816Z,99785.72
2019-04-06T16:36:34.485Z,99783.72
2019-04-06T16:39:27.780Z,99776.33
2019-04-06T16:42:19.050Z,99782.38
2019-04-06T16:45:14.667Z,99779.50
2019-04-06T16:48:13.532Z,99779.23
2019-04-06T16:51:18.665Z,99776.19
2019-04-06T16:54:11.433Z,99778.16
2019-04-06T16:57:02.691Z,99777.70
2019-04-06T17:00:01.687Z,99771.97
2019-04-06T17:02:59.312Z,99774.92
2019-04-06T17:06:04.217Z,99776.27
2019-04-06T17:08:54.279Z,99770.22
2019-04-06T17:11:56.632Z,99777.35
2019-04-06T17:15:04.187Z,99782.63
2019-04-06T17:17:58.922Z,99778.57
2019-04-06T17:20:40.705Z,99784.42
2019-04-06T17:23:31.859Z,99782.48
2019-04-06T17:26:14.157Z,99782.48
2019-04-06T17:29:07.966Z,99775.33
2019-04-06T17:32:15.955Z,99777.95
2019-04-06T17:35:22.120Z,99779.22
2019-04-06T17:38:00.403Z,99771.85
2019-04-06T17:40:51.097Z,99774.52
2019-04-06T17:43:47.500Z,99776.83
2019-04-06T17:46:31.560Z,99779.83
2019-04-06T17:49:24.785Z,99776.56
2019-04-06T17:52:16.560Z,99778.13
2019-04-06T17:55:02.062Z,99784.85
2019-04-06T17:58:11.146Z,99784.51
2019-04-06T18:01:02.781Z,99786.08
2019-04-06T18:03:59.946Z,99784.88
2019-04-06T18:06:59.059Z,99786.74
2019-04-06T18:09:42.762Z,99787.86
2019-04-06T18:12:41.826Z,99792.73
2019-04-06T18:15:16.771Z,99789.78
2019-04-06T18:17:50.474Z,99789.19
2019-04-06T18:20:24.334Z,99796.09
2019-04-06T18:22:59.230Z,99794.34
2019-04-06T18:25:33.183Z,99800.91
2019-04-06T18:28:07.435Z,99800.16
2019-04-06T18:30:42.073Z,99795.13
2019-04-06T18:33:19.859Z,99802.13
2019-04-06T18:35:54.073Z,99797.67
2019-04-06T18:38:42.706Z,99803.31
2019-04-06T18:41:15.868Z,99805.68
2019-04-06T18:43:50.368Z,99808.02
2019-04-06T18:46:24.185Z,99809.16
2019-04-06T18:48:57.809Z,99812.77
2019-04-06T18:51:32.095Z,99817.33
2019-04-06T18:54:08.330Z,99816.25
2019-04-06T18:56:42.295Z,99814.09
2019-04-06T18:59:16.030Z,99821.72
2019-04-06T19:01:49.737Z,99829.75
2019-04-06T19:04:23.831Z,99829.48
2019-04-06T19:06:57.602Z,99829.27
2019-04-06T19:09:31.571Z,99824.61
2019-04-06T19:12:05.331Z,99821.22
2019-04-06T19:14:39.429Z,99819.47
2019-04-06T19:17:13.312Z,99818.33
2019-04-06T19:19:46.991Z,99822.08
2019-04-06T19:22:21.234Z,99825.72
2019-04-06T19:24:55.414Z,99826.91
2019-04-06T19:27:29.577Z,99829.16
2019-04-06T19:30:03.774Z,99820.42
2019-04-06T19:32:38.960Z,99820.49
2019-04-06T19:35:13.254Z,99819.13
2019-04-06T19:37:47.609Z,99824.19
2019-04-06T19:40:24.030Z,99819.39
2019-04-06T19:42:58.285Z,99823.14
2019-04-06T19:45:32.639Z,99826.45
2019-04-06T19:48:06.651Z,99825.50
2019-04-06T19:50:40.968Z,99825.27
2019-04-06T19:53:16.816Z,99825.71
2019-04-06T19:55:50.911Z,99829.06
2019-04-06T19:58:25.836Z,99823.89
2019-04-06T20:01:00.327Z,99827.69
2019-04-06T20:03:39.283Z,99819.39
2019-04-06T20:06:13.312Z,99817.98
2019-04-06T20:08:48.643Z,99817.53
2019-04-06T20:11:22.762Z,99815.28
2019-04-06T20:13:57.177Z,99818.22
2019-04-06T20:16:31.862Z,99817.82
2019-04-06T20:19:05.722Z,99816.91
2019-04-06T20:21:40.071Z,99817.01
2019-04-06T20:24:14.409Z,99819.75
2019-04-06T20:26:48.172Z,99806.69
2019-04-06T20:29:22.238Z,99813.97
2019-04-06T20:31:56.351Z,99811.48
2019-04-06T20:34:31.412Z,99813.22
2019-04-06T20:37:05.516Z,99812.78
2019-04-06T20:39:39.548Z,99808.55
2019-04-06T20:42:13.335Z,99814.77
2019-04-06T20:44:47.256Z,99815.30
2019-04-06T20:47:21.551Z,99817.03
2019-04-06T20:49:56.452Z,99812.66
2019-04-06T20:52:30.594Z,99821.06
2019-04-06T20:55:04.502Z,99815.04
2019-04-06T20:57:38.517Z,99814.33
2019-04-06T21:00:12.661Z,99817.88
2019-04-06T21:02:46.568Z,99817.73
2019-04-06T21:05:20.196Z,99820.47
2019-04-06T21:07:54.380Z,99822.64
2019-04-06T21:10:29.229Z,99817.77
2019-04-06T21:13:04.330Z,99817.53
2019-04-06T21:15:38.524Z,99821.93
2019-04-06T21:18:12.501Z,99818.73
2019-04-06T21:20:46.455Z,99816.48
2019-04-06T21:23:20.689Z,99813.15
2019-04-06T21:25:57.550Z,99816.61
2019-04-06T21:28:32.183Z,99810.91
2019-04-06T21:31:06.525Z,99815.06
2019-04-06T21:33:40.277Z,99809.61
2019-04-06T21:36:14.138Z,99808.06
2019-04-06T21:38:48.178Z,99808.77
2019-04-06T21:41:22.245Z,99808.06
2019-04-06T21:43:58.465Z,99809.70
2019-04-06T21:46:32.643Z,99803.67
2019-04-06T21:49:06.452Z,99807.58
2019-04-06T21:51:40.823Z,99806.48
2019-04-06T21:54:14.798Z,99807.45
2019-04-06T21:56:49.069Z,99809.81
2019-04-06T21:59:23.429Z,99808.39
2019-04-06T22:01:58.062Z,99808.52
2019-04-06T22:04:33.675Z,99811.55
2019-04-06T22:07:08.735Z,99809.52
2019-04-06T22:09:42.409Z,99817.57
2019-04-06T22:12:16.300Z,99812.73
2019-04-06T22:14:50.600Z,99810.48
2019-04-06T22:17:24.470Z,99809.86
2019-04-06T22:19:58.269Z,99810.80
2019-04-06T22:22:32.520Z,99805.95
2019-04-06T22:25:06.648Z,99807.33
2019-04-06T22:27:40.274Z,99804.59
2019-04-06T22:30:14.850Z,99812.52
2019-04-06T22:32:49.076Z,99813.22
2019-04-06T22:35:23.242Z,99809.17
2019-04-06T22:37:57.323Z,99815.78
2019-04-06T22:40:31.475Z,99809.59
2019-04-06T22:43:05.339Z,99812.42
2019-04-06T22:45:39.273Z,99807.29
2019-04-06T22:48:13.694Z,99805.63
2019-04-06T22:50:47.524Z,99804.95
2019-04-06T22:53:21.121Z,99805.09
2019-04-06T22:55:55.183Z,99805.72
2019-04-06T22:58:28.920Z,99809.36
2019-04-06T23:01:07.959Z,99809.39
2019-04-06T23:03:59.560Z,99814.45
2019-04-06T23:06:37.397Z,99815.11
2019-04-06T23:09:11.192Z,99813.04
2019-04-06T23:11:45.856Z,99816.46
2019-04-06T23:14:20.784Z,99817.03
2019-04-06T23:16:55.252Z,99824.06
2019-04-06T23:19:29.400Z,99823.70
2019-04-06T23:22:03.623Z,99817.48
2019-04-06T23:24:37.491Z,99819.33
2019-04-06T23:27:11.533Z,99817.55
2019-04-06T23:29:45.100Z,99820.29
2019-04-06T23:32:18.722Z,99823.18
2019-04-06T23:34:59.478Z,99830.82
2019-04-06T23:37:27.680Z,99829.84
2019-04-06T23:40:01.646Z,99831.45
2019-04-06T23:42:35.692Z,99830.69
2019-04-06T23:45:09.442Z,99830.98
2019-04-06T23:47:43.436Z,99829.45
2019-04-06T23:50:17.654Z,99820.52
2019-04-06T23:52:51.643Z,99822.89
2019-04-06T23:55:25.184Z,99828.09
2019-04-06T23:57:58.929Z,99823.34
